Time;durP1;ratioP1;P1;durP2;ratioP2;P2;SDS_P1;SDS_P2;PMS_P1;PMS_P2;Temp;Humidity;BMP_temperature;BMP_pressure;BME280_temperature;BME280_humidity;BME280_pressure;Samples;Min_cycle;Max_cycle;Signal;HPM_P1;HPM_P2
2021/10/31 00:02:08;;;;;;;6.80;1.73;;;;;;;13.11;67.05;98852.47;5053068;28;20087;-91
2021/10/31 00:04:33;;;;;;;3.17;1.05;;;;;;;13.26;66.50;98850.91;5052817;28;20037;-90
2021/10/31 00:06:59;;;;;;;4.40;1.48;;;;;;;13.34;66.08;98836.94;5053049;28;20108;-92
2021/10/31 00:09:24;;;;;;;4.63;1.50;;;;;;;13.32;66.23;98832.84;5053033;28;20029;-91
2021/10/31 00:11:49;;;;;;;4.90;1.40;;;;;;;13.26;66.05;98834.25;5052940;28;20064;-90
2021/10/31 00:14:15;;;;;;;4.00;1.33;;;;;;;13.30;65.90;98827.72;5052554;28;20364;-91
2021/10/31 00:16:40;;;;;;;4.18;1.48;;;;;;;13.29;66.06;98824.25;5052471;28;20021;-91
2021/10/31 00:19:05;;;;;;;6.32;1.45;;;;;;;13.25;66.34;98816.78;5052501;28;20056;-90
2021/10/31 00:21:31;;;;;;;4.20;1.13;;;;;;;13.24;65.86;98809.88;5052654;28;20021;-90
2021/10/31 00:23:57;;;;;;;5.05;1.60;;;;;;;13.28;66.29;98808.56;5052790;28;20035;-90
2021/10/31 00:26:23;;;;;;;7.35;1.40;;;;;;;13.31;65.95;98805.66;5052698;28;20390;-91
2021/10/31 00:28:48;;;;;;;6.22;2.08;;;;;;;13.32;65.72;98785.38;5051125;28;20024;-90
2021/10/31 00:31:14;;;;;;;4.03;1.50;;;;;;;13.29;65.88;98781.25;5052816;28;20473;-90
2021/10/31 00:33:39;;;;;;;13.35;1.75;;;;;;;13.26;65.86;98781.56;5052357;28;20055;-90
2021/10/31 00:36:05;;;;;;;12.30;1.85;;;;;;;13.32;66.63;98774.84;5052558;28;20025;-91
2021/10/31 00:38:31;;;;;;;6.82;1.58;;;;;;;13.43;66.37;98750.81;5052469;28;20064;-90
2021/10/31 00:40:56;;;;;;;5.40;1.20;;;;;;;13.43;66.25;98761.38;5052311;28;20029;-91
2021/10/31 00:43:22;;;;;;;11.30;1.42;;;;;;;13.31;67.12;98758.22;5051953;28;20140;-91
2021/10/31 00:45:49;;;;;;;15.35;1.77;;;;;;;13.65;65.95;98746.72;5051840;28;20444;-89
2021/10/31 00:48:14;;;;;;;9.38;1.27;;;;;;;13.67;66.30;98750.81;5051975;28;20025;-90
2021/10/31 00:50:40;;;;;;;7.78;1.48;;;;;;;13.78;66.35;98740.91;5051751;28;20394;-91
2021/10/31 00:53:06;;;;;;;10.00;1.45;;;;;;;13.88;66.32;98739.78;5051649;28;20055;-91
2021/10/31 00:55:32;;;;;;;16.13;1.45;;;;;;;13.90;66.79;98736.94;5052256;28;20033;-91
2021/10/31 00:57:58;;;;;;;8.68;1.30;;;;;;;13.82;66.31;98729.91;5052092;28;20035;-91
2021/10/31 01:00:24;;;;;;;5.20;1.05;;;;;;;14.03;66.10;98723.25;5051529;28;20123;-91
2021/10/31 01:02:50;;;;;;;14.23;2.17;;;;;;;14.02;66.32;98711.88;5051780;28;20182;-90
2021/10/31 01:05:21;;;;;;;6.75;1.15;;;;;;;14.15;65.93;98700.78;5051368;28;20028;-90
2021/10/31 01:08:21;;;;;;;4.45;0.98;;;;;;;14.24;66.12;98696.34;5048508;28;20052;-90
2021/10/31 01:10:56;;;;;;;9.65;1.20;;;;;;;14.31;65.85;98691.19;5051408;28;20051;-91
2021/10/31 01:13:45;;;;;;;13.70;1.70;;;;;;;14.39;65.12;98686.69;5051391;28;20033;-90
2021/10/31 01:16:49;;;;;;;8.68;1.20;;;;;;;14.56;65.23;98684.84;5049364;28;20585;-90
2021/10/31 01:19:52;;;;;;;7.00;0.73;;;;;;;14.46;65.66;98676.28;5049038;28;20057;-91
2021/10/31 01:22:52;;;;;;;11.02;1.63;;;;;;;14.60;64.85;98670.31;5048758;28;20025;-91
2021/10/31 01:25:47;;;;;;;9.50;1.73;;;;;;;14.61;65.78;98656.13;5051473;28;20037;-91
2021/10/31 01:28:40;;;;;;;5.43;1.35;;;;;;;14.75;64.89;98651.91;5050122;28;20029;-90
2021/10/31 01:31:17;;;;;;;8.07;1.52;;;;;;;14.54;65.83;98634.00;5048560;28;20143;-90
2021/10/31 01:34:14;;;;;;;12.15;1.17;;;;;;;14.67;65.90;98633.44;5049403;28;20021;-91
2021/10/31 01:36:42;;;;;;;9.73;1.48;;;;;;;14.73;65.86;98624.84;5051188;28;20029;-91
2021/10/31 01:39:16;;;;;;;7.22;1.55;;;;;;;14.71;65.79;98624.19;5051135;28;20536;-91
2021/10/31 01:41:46;;;;;;;9.73;2.78;;;;;;;14.76;65.62;98611.28;5051497;28;20115;-91
2021/10/31 01:44:40;;;;;;;8.63;2.03;;;;;;;14.98;65.12;98600.88;5051333;28;20107;-91
2021/10/31 01:47:23;;;;;;;9.57;1.20;;;;;;;15.07;65.12;98605.13;5048313;28;20025;-91
2021/10/31 01:50:21;;;;;;;6.07;0.98;;;;;;;15.08;65.44;98583.78;5054624;28;20036;-90
2021/10/31 01:52:55;;;;;;;11.13;0.95;;;;;;;15.09;65.23;98584.63;5068543;28;20021;-91
2021/10/31 01:55:24;;;;;;;9.32;1.30;;;;;;;14.79;66.12;98568.66;5066351;28;20048;-91
2021/10/31 01:57:55;;;;;;;9.20;1.33;;;;;;;14.94;65.54;98566.06;5067323;28;20013;-90
2021/10/31 02:00:22;;;;;;;9.03;1.33;;;;;;;14.97;65.70;98554.31;5066747;28;20029;-91
2021/10/31 02:02:47;;;;;;;6.22;0.70;;;;;;;15.00;65.42;98549.50;5066966;28;20032;-91
2021/10/31 02:05:17;;;;;;;14.82;1.67;;;;;;;15.14;65.21;98549.72;5060149;28;20029;-91
2021/10/31 02:07:48;;;;;;;13.00;2.63;;;;;;;15.05;65.28;98539.22;5066659;28;20032;-91
2021/10/31 02:10:15;;;;;;;12.45;1.38;;;;;;;14.80;65.92;98535.94;5044457;28;20041;-90
2021/10/31 02:12:42;;;;;;;7.63;1.27;;;;;;;14.88;66.20;98527.13;5063702;28;20029;-90
2021/10/31 02:15:12;;;;;;;8.30;1.15;;;;;;;14.92;66.02;98523.13;5062763;28;20029;-90
2021/10/31 02:17:39;;;;;;;6.93;0.95;;;;;;;15.05;65.59;98520.72;5064358;28;20103;-90
2021/10/31 02:20:05;;;;;;;10.02;1.15;;;;;;;14.93;66.19;98516.88;5064791;28;20049;-91
2021/10/31 02:22:32;;;;;;;13.77;2.17;;;;;;;14.92;65.81;98504.63;5065205;28;20021;-90
2021/10/31 02:25:00;;;;;;;16.42;1.40;;;;;;;14.92;66.33;98493.25;5054883;28;20027;-89
2021/10/31 02:27:31;;;;;;;13.35;1.27;;;;;;;14.84;66.75;98491.50;5067854;28;20033;-90
2021/10/31 02:29:58;;;;;;;7.10;1.20;;;;;;;15.18;65.47;98479.63;5069147;28;20009;-90
2021/10/31 02:32:26;;;;;;;9.68;1.23;;;;;;;15.03;66.31;98459.28;5064879;28;20280;-91
2021/10/31 02:34:56;;;;;;;7.95;0.90;;;;;;;15.14;66.10;98463.28;5051350;28;20025;-91
2021/10/31 02:37:25;;;;;;;14.32;1.80;;;;;;;15.21;66.41;98458.13;5051327;28;20044;-91
2021/10/31 02:39:51;;;;;;;9.77;1.40;;;;;;;14.98;67.15;98451.06;5051539;28;20474;-91
2021/10/31 02:42:16;;;;;;;10.02;1.20;;;;;;;15.44;65.54;98440.34;5053285;28;20039;-91
2021/10/31 02:44:43;;;;;;;10.27;1.63;;;;;;;15.55;65.50;98440.88;5054926;28;20053;-92
2021/10/31 02:47:12;;;;;;;9.05;1.40;;;;;;;15.62;65.39;98428.53;5054925;28;20125;-91
2021/10/31 02:49:38;;;;;;;11.90;1.33;;;;;;;15.51;65.70;98418.44;5051750;28;20027;-92
2021/10/31 02:52:17;;;;;;;13.13;1.40;;;;;;;15.60;65.85;98412.03;5054919;28;20505;-92
2021/10/31 02:55:07;;;;;;;5.78;1.10;;;;;;;15.71;65.50;98400.97;5054613;28;20040;-91
2021/10/31 02:58:02;;;;;;;9.38;1.50;;;;;;;15.66;65.67;98395.44;5052520;28;20029;-91
2021/10/31 03:00:30;;;;;;;5.28;1.10;;;;;;;15.63;65.81;98395.78;5051256;28;20367;-91
2021/10/31 03:02:57;;;;;;;8.85;1.25;;;;;;;15.69;65.26;98379.16;5054275;28;20486;-90
2021/10/31 03:05:23;;;;;;;11.75;1.10;;;;;;;15.44;66.59;98374.22;5054107;28;20033;-91
2021/10/31 03:07:49;;;;;;;7.15;1.20;;;;;;;15.22;66.73;98367.22;5053866;28;20100;-90
2021/10/31 03:10:18;;;;;;;10.10;1.15;;;;;;;15.19;67.44;98354.38;5054367;28;20068;-91
2021/10/31 03:12:48;;;;;;;7.85;1.10;;;;;;;15.45;66.95;98352.03;5053685;28;20025;-92
2021/10/31 03:15:14;;;;;;;6.15;1.23;;;;;;;15.72;66.11;98336.47;5053784;28;20466;-91
2021/10/31 03:17:39;;;;;;;8.10;1.23;;;;;;;15.78;66.21;98334.94;5054167;28;20021;-91
2021/10/31 03:20:05;;;;;;;10.32;1.25;;;;;;;15.67;66.54;98341.50;5053923;28;20029;-91
2021/10/31 03:22:31;;;;;;;9.55;1.45;;;;;;;15.89;65.73;98323.03;5053680;28;20051;-91
2021/10/31 03:24:57;;;;;;;10.60;1.30;;;;;;;15.83;66.69;98309.53;5054345;28;20099;-91
2021/10/31 03:27:22;;;;;;;12.27;1.63;;;;;;;15.85;67.04;98310.16;5050742;28;20025;-91
2021/10/31 03:29:49;;;;;;;6.00;1.45;;;;;;;16.03;66.39;98304.44;5054215;28;20068;-91
2021/10/31 03:32:14;;;;;;;9.57;1.85;;;;;;;15.75;67.65;98293.78;5053837;28;20494;-91
2021/10/31 03:34:39;;;;;;;15.52;1.70;;;;;;;15.94;67.20;98296.81;5053640;28;20029;-91
2021/10/31 03:37:05;;;;;;;16.02;1.85;;;;;;;15.76;68.04;98287.50;5053987;28;20546;-90
2021/10/31 03:39:30;;;;;;;10.02;2.25;;;;;;;15.75;68.34;98277.09;5053731;28;20119;-90
2021/10/31 03:41:55;;;;;;;10.95;1.58;;;;;;;16.06;67.41;98282.06;5053709;28;20025;-90
2021/10/31 03:44:22;;;;;;;14.82;1.52;;;;;;;15.68;68.84;98279.66;5053627;28;20454;-90
2021/10/31 03:46:48;;;;;;;7.05;1.45;;;;;;;16.13;67.13;98272.31;5053381;28;20472;-91
2021/10/31 03:49:15;;;;;;;14.93;1.60;;;;;;;16.41;66.54;98255.59;5053699;28;20021;-90
2021/10/31 03:51:40;;;;;;;13.48;1.35;;;;;;;16.51;66.35;98252.59;5053445;28;20021;-90
2021/10/31 03:54:06;;;;;;;17.75;1.42;;;;;;;16.43;66.49;98248.31;5034557;28;20577;-90
2021/10/31 03:56:31;;;;;;;11.13;1.40;;;;;;;16.49;66.45;98247.53;5053291;28;20107;-88
2021/10/31 03:58:57;;;;;;;8.32;1.25;;;;;;;16.32;66.95;98235.59;5053168;28;20033;-91
2021/10/31 04:01:22;;;;;;;11.88;1.63;;;;;;;15.96;68.57;98233.94;5053532;28;20071;-90
2021/10/31 04:03:47;;;;;;;8.05;1.40;;;;;;;16.54;66.90;98231.84;5053004;28;20075;-91
2021/10/31 04:06:13;;;;;;;17.33;1.70;;;;;;;16.82;66.07;98234.47;5053576;28;20039;-91
2021/10/31 04:08:40;;;;;;;24.85;2.90;;;;;;;16.62;67.26;98207.03;5053715;28;20405;-90
2021/10/31 04:11:08;;;;;;;8.15;1.30;;;;;;;16.77;66.48;98196.28;5052904;28;20021;-91
2021/10/31 04:13:34;;;;;;;12.73;2.50;;;;;;;16.24;68.50;98189.72;5053118;28;20032;-91
2021/10/31 04:16:01;;;;;;;13.10;1.48;;;;;;;16.85;66.72;98169.63;5053021;28;20021;-90
2021/10/31 04:18:26;;;;;;;12.32;1.75;;;;;;;16.05;69.34;98174.53;5052875;28;20074;-90
2021/10/31 04:20:51;;;;;;;22.02;3.45;;;;;;;16.29;68.92;98162.66;5052596;28;20425;-91
2021/10/31 04:23:17;;;;;;;11.18;1.90;;;;;;;16.47;68.38;98151.53;5048809;28;20471;-91
2021/10/31 04:25:42;;;;;;;10.63;2.03;;;;;;;16.34;68.73;98162.06;5052852;28;20074;-91
2021/10/31 04:28:08;;;;;;;16.10;2.53;;;;;;;16.56;68.29;98157.47;5034955;28;20021;-91
2021/10/31 04:30:33;;;;;;;15.48;1.67;;;;;;;16.46;68.63;98147.25;5052938;28;20090;-90
2021/10/31 04:32:59;;;;;;;15.82;3.22;;;;;;;16.39;68.83;98146.38;5052312;28;20064;-91
2021/10/31 04:35:24;;;;;;;13.02;2.67;;;;;;;16.50;68.78;98132.59;5052513;28;20112;-90
2021/10/31 04:37:52;;;;;;;17.55;1.70;;;;;;;16.37;69.60;98116.63;5035097;28;20040;-89
2021/10/31 04:40:21;;;;;;;23.65;2.55;;;;;;;16.58;69.26;98113.06;5053248;28;20025;-91
2021/10/31 04:42:46;;;;;;;10.07;1.85;;;;;;;17.01;67.57;98089.75;5052485;28;20039;-91
2021/10/31 04:45:12;;;;;;;17.50;3.25;;;;;;;16.56;69.04;98100.00;5052486;28;20021;-91
2021/10/31 04:47:37;;;;;;;14.40;1.45;;;;;;;16.79;68.42;98082.97;5053249;28;20628;-92
2021/10/31 04:50:03;;;;;;;23.50;3.13;;;;;;;16.81;68.28;98080.91;5052798;28;20095;-92
2021/10/31 04:52:31;;;;;;;17.45;2.33;;;;;;;16.89;68.28;98070.16;5052314;28;20061;-90
2021/10/31 04:54:56;;;;;;;12.88;1.60;;;;;;;16.55;69.15;98050.69;5051978;28;20052;-92
2021/10/31 04:57:22;;;;;;;18.20;1.98;;;;;;;16.61;69.66;98039.31;5052447;28;20482;-93
2021/10/31 04:59:47;;;;;;;13.02;1.65;;;;;;;16.74;69.27;98029.72;5052306;28;20040;-93
2021/10/31 05:02:12;;;;;;;12.20;1.83;;;;;;;16.72;69.10;98013.22;5052051;28;20151;-92
2021/10/31 05:04:38;;;;;;;11.02;1.63;;;;;;;16.59;69.85;98004.25;5051371;28;20036;-93
2021/10/31 05:07:04;;;;;;;14.07;2.03;;;;;;;16.57;69.92;98006.28;5052177;28;20021;-92
2021/10/31 05:09:29;;;;;;;9.20;1.83;;;;;;;16.50;70.36;97994.03;5034154;28;20033;-92
2021/10/31 05:11:54;;;;;;;12.90;1.92;;;;;;;16.62;70.30;97982.63;5051693;28;20033;-92
2021/10/31 05:14:19;;;;;;;11.93;3.05;;;;;;;16.53;70.30;97967.97;5051431;28;20032;-93
2021/10/31 05:16:45;;;;;;;12.57;2.15;;;;;;;16.49;70.68;97961.44;5051717;28;20029;-93
2021/10/31 05:19:11;;;;;;;13.00;1.73;;;;;;;16.47;70.95;97960.84;5051626;28;20031;-93
2021/10/31 05:21:36;;;;;;;16.40;1.77;;;;;;;16.64;70.13;97942.69;5051660;28;20532;-92
2021/10/31 05:24:02;;;;;;;13.80;3.15;;;;;;;16.68;69.79;97933.31;5051872;28;20052;-90
2021/10/31 05:26:27;;;;;;;11.45;1.80;;;;;;;16.52;70.50;97934.53;5051942;28;20070;-92
2021/10/31 05:28:54;;;;;;;15.90;2.00;;;;;;;16.48;70.85;97932.50;5051416;28;20386;-91
2021/10/31 05:31:21;;;;;;;7.90;1.60;;;;;;;16.98;69.58;97932.94;5051941;28;20032;-90
2021/10/31 05:33:47;;;;;;;10.45;2.38;;;;;;;16.42;71.32;97927.00;5051459;28;20111;-90
2021/10/31 05:36:12;;;;;;;17.52;1.27;;;;;;;16.34;71.97;97913.16;5051898;28;20430;-91
2021/10/31 05:38:38;;;;;;;12.15;2.08;;;;;;;16.51;71.37;97921.50;5051801;28;20028;-90
2021/10/31 05:41:04;;;;;;;12.57;1.50;;;;;;;16.43;72.05;97901.34;5051699;28;20021;-91
2021/10/31 05:43:30;;;;;;;11.00;1.83;;;;;;;16.51;71.92;97906.44;5051034;28;20032;-92
2021/10/31 05:45:59;;;;;;;13.02;1.63;;;;;;;16.27;73.27;97878.69;5051597;28;20111;-91
2021/10/31 05:48:25;;;;;;;13.10;1.50;;;;;;;16.79;70.94;97884.22;5048400;28;20024;-92
2021/10/31 05:50:55;;;;;;;7.60;1.00;;;;;;;16.35;73.57;97885.63;5051343;28;20029;-92
2021/10/31 05:53:21;;;;;;;9.73;1.77;;;;;;;16.29;73.63;97879.34;5050892;28;20032;-91
2021/10/31 05:55:47;;;;;;;6.55;1.30;;;;;;;16.45;72.46;97865.69;5051255;28;20475;-90
2021/10/31 05:58:12;;;;;;;5.53;0.68;;;;;;;16.12;74.13;97849.78;5051447;28;20040;-90
2021/10/31 06:00:37;;;;;;;5.47;1.40;;;;;;;16.30;73.42;97832.50;5051264;28;20037;-91
2021/10/31 06:03:03;;;;;;;6.07;0.80;;;;;;;16.66;71.91;97835.50;5050459;28;20037;-91
2021/10/31 06:05:29;;;;;;;4.18;0.80;;;;;;;16.39;73.25;97829.44;5050935;28;20045;-91
2021/10/31 06:07:54;;;;;;;10.73;2.15;;;;;;;16.72;71.75;97822.44;5051281;28;20107;-92
2021/10/31 06:10:20;;;;;;;5.25;0.88;;;;;;;16.75;71.91;97824.69;5051103;28;20021;-92
2021/10/31 06:12:47;;;;;;;16.05;0.80;;;;;;;16.69;72.08;97823.69;5051276;28;20021;-91
2021/10/31 06:15:15;;;;;;;10.63;1.15;;;;;;;16.32;73.74;97820.66;5050798;28;20033;-92
2021/10/31 06:17:41;;;;;;;11.18;1.75;;;;;;;16.71;72.56;97828.78;5054985;28;20111;-91
2021/10/31 06:20:08;;;;;;;7.85;1.08;;;;;;;16.31;74.09;97824.34;5054741;28;20470;-91
2021/10/31 06:22:34;;;;;;;4.75;0.60;;;;;;;16.45;73.51;97812.72;5055180;28;20444;-91
2021/10/31 06:24:59;;;;;;;3.63;0.70;;;;;;;16.04;75.05;97820.88;5054547;28;20037;-91
2021/10/31 06:27:25;;;;;;;3.17;0.40;;;;;;;16.06;75.37;97829.41;5054916;28;20057;-90
2021/10/31 06:29:50;;;;;;;2.15;0.63;;;;;;;16.52;73.03;97822.50;5055412;28;20115;-91
2021/10/31 06:32:15;;;;;;;5.00;0.38;;;;;;;16.49;73.20;97812.28;5054786;28;20394;-91
2021/10/31 06:34:41;;;;;;;3.33;0.77;;;;;;;16.78;71.78;97803.06;5055016;28;20036;-91
2021/10/31 06:37:06;;;;;;;4.25;1.08;;;;;;;16.82;71.47;97796.38;5053731;28;20059;-91
2021/10/31 06:39:32;;;;;;;3.72;0.57;;;;;;;16.77;71.78;97781.06;5054963;28;20549;-90
2021/10/31 06:41:57;;;;;;;5.97;0.60;;;;;;;16.46;72.96;97776.44;5054617;28;20202;-91
2021/10/31 06:44:22;;;;;;;10.63;0.80;;;;;;;16.61;73.05;97776.22;5054056;28;20502;-92
2021/10/31 06:46:48;;;;;;;7.68;1.13;;;;;;;16.71;72.63;97775.81;5054573;28;20029;-92
2021/10/31 06:49:13;;;;;;;9.98;0.85;;;;;;;16.59;73.22;97749.94;5054564;28;20040;-91
2021/10/31 06:51:39;;;;;;;12.48;1.33;;;;;;;16.34;74.49;97760.38;5054552;28;20029;-91
2021/10/31 06:54:05;;;;;;;11.27;1.33;;;;;;;16.75;72.65;97742.56;5055242;28;20033;-92
2021/10/31 06:56:30;;;;;;;11.68;1.23;;;;;;;16.35;74.06;97732.06;5054123;28;20052;-92
2021/10/31 06:58:56;;;;;;;13.05;1.02;;;;;;;16.50;73.64;97737.13;5054527;28;20025;-92
2021/10/31 07:01:21;;;;;;;8.77;1.65;;;;;;;16.54;73.63;97735.69;5054513;28;20024;-91
2021/10/31 07:03:48;;;;;;;10.68;1.40;;;;;;;16.14;73.96;97736.56;5053973;28;20033;-92
2021/10/31 07:06:15;;;;;;;10.20;1.48;;;;;;;16.38;74.13;97724.50;5054073;28;20025;-91
2021/10/31 07:08:41;;;;;;;14.25;1.67;;;;;;;16.48;73.99;97720.63;5053999;28;20032;-92
2021/10/31 07:11:07;;;;;;;10.18;1.60;;;;;;;16.38;73.80;97715.75;5054031;28;20025;-92
2021/10/31 07:13:33;;;;;;;15.75;2.13;;;;;;;16.29;74.38;97706.41;5053796;28;20036;-92
2021/10/31 07:15:59;;;;;;;5.38;1.15;;;;;;;16.03;74.95;97713.38;5053867;28;20032;-91
2021/10/31 07:18:24;;;;;;;13.45;1.52;;;;;;;16.17;74.97;97699.13;5054097;28;20025;-92
2021/10/31 07:20:49;;;;;;;7.97;1.08;;;;;;;16.18;74.95;97695.44;5054163;28;20021;-93
2021/10/31 07:23:15;;;;;;;10.45;1.77;;;;;;;16.10;75.11;97693.00;5053731;28;20025;-92
2021/10/31 07:25:40;;;;;;;14.13;1.73;;;;;;;16.30;74.08;97694.81;5054059;28;20024;-92
2021/10/31 07:28:05;;;;;;;6.30;1.20;;;;;;;16.05;74.57;97674.28;5053562;28;20059;-91
2021/10/31 07:30:31;;;;;;;20.42;1.73;;;;;;;16.26;74.35;97670.56;5053844;28;20082;-91
2021/10/31 07:32:59;;;;;;;9.20;1.23;;;;;;;15.65;77.42;97669.00;5053394;28;20032;-91
2021/10/31 07:35:25;;;;;;;13.40;1.52;;;;;;;16.11;75.30;97662.03;5053566;28;20029;-92
2021/10/31 07:37:51;;;;;;;11.07;2.40;;;;;;;16.17;74.93;97653.28;5053465;28;20471;-93
2021/10/31 07:40:17;;;;;;;15.15;2.10;;;;;;;16.25;73.94;97648.59;5053456;28;20028;-92
2021/10/31 07:42:43;;;;;;;8.05;1.05;;;;;;;16.38;73.32;97636.31;5053323;28;20490;-92
2021/10/31 07:45:09;;;;;;;8.48;1.33;;;;;;;16.68;71.87;97635.78;5053207;28;20041;-91
2021/10/31 07:47:34;;;;;;;7.22;1.40;;;;;;;16.15;73.71;97627.03;5053386;28;20035;-91
2021/10/31 07:49:59;;;;;;;17.52;2.42;;;;;;;15.74;75.68;97604.31;5051014;28;20057;-92
2021/10/31 07:52:25;;;;;;;7.57;0.85;;;;;;;16.29;75.03;97600.50;5050172;28;20055;-90
2021/10/31 07:54:51;;;;;;;9.93;1.83;;;;;;;16.22;74.18;97589.94;5053580;28;20032;-91
2021/10/31 07:57:22;;;;;;;14.45;2.17;;;;;;;16.42;73.42;97605.75;5053435;28;20033;-92
2021/10/31 07:59:47;;;;;;;12.80;2.17;;;;;;;16.05;75.42;97597.53;5045743;28;20025;-91
2021/10/31 08:02:13;;;;;;;11.32;2.13;;;;;;;16.46;73.95;97614.91;5049094;28;20091;-91
2021/10/31 08:04:38;;;;;;;16.88;1.20;;;;;;;16.36;74.10;97603.94;5053098;28;20036;-90
2021/10/31 08:07:04;;;;;;;13.85;1.25;;;;;;;15.96;75.35;97594.28;5052943;28;20025;-90
2021/10/31 08:09:29;;;;;;;13.65;1.30;;;;;;;16.33;73.44;97575.22;5053702;28;20379;-91
2021/10/31 08:11:54;;;;;;;15.57;1.58;;;;;;;16.26;74.07;97554.09;5052970;28;20475;-91
2021/10/31 08:14:20;;;;;;;12.00;1.55;;;;;;;16.42;73.04;97535.06;5053687;28;20057;-91
2021/10/31 08:16:45;;;;;;;10.82;1.85;;;;;;;16.66;72.50;97530.84;5053520;28;20021;-90
2021/10/31 08:19:11;;;;;;;21.25;2.20;;;;;;;16.76;72.02;97519.75;5053989;28;20084;-90
2021/10/31 08:21:37;;;;;;;14.70;1.33;;;;;;;16.83;71.67;97522.41;5052906;28;20070;-90
2021/10/31 08:24:03;;;;;;;6.22;1.02;;;;;;;16.98;70.61;97509.66;5054364;28;20500;-90
2021/10/31 08:26:29;;;;;;;13.07;1.40;;;;;;;16.84;70.63;97519.56;5035444;28;20029;-90
2021/10/31 08:28:55;;;;;;;7.40;1.30;;;;;;;16.97;70.57;97534.53;5053194;28;20052;-88
2021/10/31 08:31:31;;;;;;;11.10;1.27;;;;;;;16.98;70.66;97538.81;5052941;28;20037;-89
2021/10/31 08:33:59;;;;;;;6.53;1.40;;;;;;;16.96;70.89;97530.28;5053237;28;20032;-92
2021/10/31 08:36:26;;;;;;;3.72;0.90;;;;;;;16.94;70.75;97528.84;5053170;28;20020;-93
2021/10/31 08:38:52;;;;;;;6.30;1.30;;;;;;;16.86;70.94;97532.56;5053896;28;20028;-92
2021/10/31 08:41:19;;;;;;;7.93;1.13;;;;;;;16.89;71.11;97541.94;5047018;28;20493;-94
2021/10/31 08:43:45;;;;;;;7.28;1.25;;;;;;;16.63;71.48;97543.72;5034951;28;20482;-95
2021/10/31 08:46:11;;;;;;;11.68;2.42;;;;;;;16.25;73.56;97553.28;5034893;28;20025;-92
2021/10/31 08:48:38;;;;;;;3.25;0.77;;;;;;;16.34;73.00;97561.78;5050151;28;20029;-94
2021/10/31 08:51:04;;;;;;;4.10;0.55;;;;;;;16.63;71.17;97557.75;5033537;28;20104;-92
2021/10/31 08:53:29;;;;;;;3.40;0.60;;;;;;;16.64;70.68;97564.66;5049282;28;20116;-89
2021/10/31 08:55:59;;;;;;;2.28;0.40;;;;;;;16.70;71.02;97560.38;5052215;28;20021;-92
2021/10/31 08:58:25;;;;;;;2.67;0.40;;;;;;;16.16;71.82;97570.41;5052666;28;20601;-93
2021/10/31 09:00:50;;;;;;;0.98;0.10;;;;;;;16.47;70.89;97560.91;5052915;28;20051;-93
2021/10/31 09:03:16;;;;;;;0.57;0.20;;;;;;;16.53;71.00;97575.97;5052580;28;20534;-93
2021/10/31 09:05:41;;;;;;;1.63;0.20;;;;;;;16.68;70.65;97578.31;5053382;28;20052;-94
2021/10/31 09:08:08;;;;;;;1.10;0.20;;;;;;;16.58;70.14;97599.16;5052637;28;20108;-93
2021/10/31 09:10:34;;;;;;;1.25;0.30;;;;;;;16.76;70.40;97609.03;5052622;28;20119;-94
2021/10/31 09:12:59;;;;;;;0.32;0.10;;;;;;;16.37;70.45;97613.50;5052512;28;20112;-93
2021/10/31 09:15:29;;;;;;;1.65;0.30;;;;;;;16.34;70.99;97621.88;5052825;28;20447;-90
2021/10/31 09:17:56;;;;;;;1.90;0.43;;;;;;;16.36;70.67;97614.53;5052394;28;20122;-90
2021/10/31 09:20:25;;;;;;;1.27;0.13;;;;;;;16.36;70.77;97618.00;5052825;28;20029;-90
2021/10/31 09:22:52;;;;;;;1.15;0.20;;;;;;;16.50;70.18;97618.75;5051608;28;20102;-89
2021/10/31 09:25:18;;;;;;;1.20;0.25;;;;;;;16.52;69.87;97602.66;5051424;28;20028;-89
2021/10/31 09:27:44;;;;;;;0.73;0.20;;;;;;;16.11;70.77;97625.78;5050854;28;20071;-91
2021/10/31 09:30:10;;;;;;;1.15;0.35;;;;;;;16.19;69.99;97622.94;5052431;28;20024;-96
2021/10/31 09:32:39;;;;;;;1.13;0.20;;;;;;;16.34;70.20;97640.41;5052194;28;20056;-90
2021/10/31 09:35:05;;;;;;;3.17;0.30;;;;;;;17.47;70.31;97644.31;5049564;28;20040;-91
2021/10/31 09:37:30;;;;;;;3.00;0.30;;;;;;;17.53;68.83;97632.81;5050882;28;20029;-91
2021/10/31 09:40:00;;;;;;;4.85;0.30;;;;;;;17.99;68.80;97637.75;5049131;28;20067;-94
2021/10/31 09:42:26;;;;;;;4.18;0.47;;;;;;;18.74;68.37;97644.66;5034160;28;20025;-95
2021/10/31 09:44:51;;;;;;;5.57;0.70;;;;;;;19.41;67.23;97649.03;5023650;28;20040;-95
2021/10/31 09:47:24;;;;;;;4.93;0.57;;;;;;;20.72;65.23;97656.00;5050078;28;20021;-94
2021/10/31 09:49:50;;;;;;;5.72;0.60;;;;;;;20.32;60.01;97651.41;5044710;28;20067;-95
2021/10/31 09:52:16;;;;;;;4.68;0.60;;;;;;;20.91;60.17;97660.09;5042502;28;20036;-95
2021/10/31 09:54:41;;;;;;;5.70;0.95;;;;;;;21.90;58.11;97664.19;5037272;28;20025;-95
2021/10/31 09:57:07;;;;;;;14.05;1.52;;;;;;;21.84;56.47;97664.31;5046471;28;20501;-96
2021/10/31 09:59:38;;;;;;;8.48;1.35;;;;;;;20.88;53.78;97676.56;5049920;28;20052;-96
2021/10/31 10:04:36;;;;;;;5.45;1.00;;;;;;;19.90;58.37;97683.50;5050691;28;20033;-95
2021/10/31 10:07:05;;;;;;;6.38;0.98;;;;;;;19.25;57.90;97684.28;5032543;28;20017;-96
2021/10/31 10:09:31;;;;;;;6.88;0.90;;;;;;;19.16;58.63;97689.13;5049968;28;20083;-95
2021/10/31 10:11:58;;;;;;;7.53;1.23;;;;;;;19.31;59.36;97692.19;5050118;28;20029;-94
2021/10/31 10:14:31;;;;;;;13.27;1.15;;;;;;;19.13;59.16;97678.94;5032350;28;20032;-91
2021/10/31 10:17:05;;;;;;;9.30;1.88;;;;;;;18.27;62.17;97686.09;5035959;28;20021;-91
2021/10/31 10:19:36;;;;;;;9.30;1.13;;;;;;;18.89;61.11;97684.16;5036893;28;20092;-91
2021/10/31 10:22:01;;;;;;;9.57;1.43;;;;;;;19.17;58.86;97688.06;5049571;28;20017;-91
2021/10/31 10:24:28;;;;;;;16.42;1.52;;;;;;;18.09;60.34;97684.19;5031762;28;20036;-91
2021/10/31 10:26:57;;;;;;;8.68;1.80;;;;;;;17.81;61.59;97698.72;5031040;28;20021;-91
2021/10/31 10:29:28;;;;;;;9.30;1.33;;;;;;;18.48;59.06;97695.44;5042232;28;20095;-92
2021/10/31 10:32:13;;;;;;;12.43;2.42;;;;;;;19.19;59.99;97701.97;5048462;28;20029;-92
2021/10/31 10:34:47;;;;;;;9.13;1.17;;;;;;;20.00;58.21;97715.69;5047655;28;20103;-91
2021/10/31 10:37:26;;;;;;;10.60;1.83;;;;;;;19.43;55.92;97705.50;5049844;28;20028;-94
2021/10/31 10:47:40;;;;;;;18.38;2.35;;;;;;;20.81;52.24;97710.53;5017350;22;20043;-94
2021/10/31 10:50:13;;;;;;;8.13;1.45;;;;;;;21.35;52.47;97737.72;4987746;28;20370;-94
2021/10/31 10:52:42;;;;;;;9.65;1.50;;;;;;;20.58;51.72;97728.19;4992779;28;20038;-94
2021/10/31 10:55:24;;;;;;;14.90;2.08;;;;;;;19.74;54.55;97733.72;4984348;28;20036;-93
2021/10/31 10:57:53;;;;;;;9.55;1.48;;;;;;;21.19;52.97;97733.16;4997299;28;20018;-94
2021/10/31 11:00:21;;;;;;;9.23;2.15;;;;;;;21.09;50.96;97735.63;4999543;28;20077;-94
2021/10/31 11:03:07;;;;;;;10.20;1.48;;;;;;;20.71;51.47;97759.13;5004596;28;20116;-94
2021/10/31 11:05:35;;;;;;;14.77;1.52;;;;;;;21.31;51.94;97739.25;4983204;28;20031;-93
2021/10/31 11:08:07;;;;;;;9.98;2.13;;;;;;;21.89;51.04;97725.84;5002145;28;20113;-94
2021/10/31 11:10:32;;;;;;;11.10;2.22;;;;;;;22.20;50.67;97740.50;5014804;28;20484;-94
2021/10/31 11:15:34;;;;;;;9.52;1.92;;;;;;;22.48;48.84;97723.53;5070319;28;20056;-96
2021/10/31 11:18:02;;;;;;;10.07;1.65;;;;;;;22.35;48.73;97734.56;5081812;28;20024;-95
2021/10/31 11:20:32;;;;;;;13.93;1.63;;;;;;;22.44;48.38;97724.28;5079150;28;20490;-96
2021/10/31 11:23:02;;;;;;;11.52;2.03;;;;;;;22.02;47.09;97724.69;5097116;28;20036;-96
2021/10/31 11:25:30;;;;;;;9.23;1.55;;;;;;;22.25;47.72;97734.44;5116863;22;20044;-96
2021/10/31 11:27:58;;;;;;;7.53;1.10;;;;;;;21.83;48.97;97716.94;5102811;23;20059;-95
2021/10/31 11:30:30;;;;;;;5.43;1.40;;;;;;;21.85;48.77;97732.72;5109424;22;20091;-96
2021/10/31 11:32:57;;;;;;;13.05;1.50;;;;;;;21.43;49.12;97744.56;5050139;28;20014;-93
2021/10/31 11:35:23;;;;;;;8.90;1.60;;;;;;;21.32;49.33;97745.41;5093335;23;20054;-96
2021/10/31 11:37:56;;;;;;;5.88;1.42;;;;;;;20.52;51.11;97745.13;5107541;23;20028;-96
2021/10/31 11:40:32;;;;;;;7.38;1.70;;;;;;;20.76;49.49;97755.78;5064026;28;20055;-95
2021/10/31 11:42:59;;;;;;;10.88;1.45;;;;;;;20.09;50.34;97746.28;5042392;28;20459;-96
2021/10/31 11:45:34;;;;;;;10.00;1.80;;;;;;;19.41;51.98;97756.31;5075818;28;20056;-96
2021/10/31 11:48:18;;;;;;;9.73;1.00;;;;;;;19.65;52.02;97751.06;5154791;22;21231;-96